sensor_id;sensor_type;location;lat;lon;timestamp;temperature;humidity
17178;DHT22;8704;52.006;4.374;2022-08-21T00:00:45;16.30;99.90
17178;DHT22;8704;52.006;4.374;2022-08-21T00:03:15;16.30;99.90
17178;DHT22;8704;52.006;4.374;2022-08-21T00:05:45;16.30;99.90
17178;DHT22;8704;52.006;4.374;2022-08-21T00:08:13;16.30;99.90
17178;DHT22;8704;52.006;4.374;2022-08-21T00:10:42;16.30;99.90
17178;DHT22;8704;52.006;4.374;2022-08-21T00:13:11;16.30;99.90
17178;DHT22;8704;52.006;4.374;2022-08-21T00:15:44;16.30;99.90
17178;DHT22;8704;52.006;4.374;2022-08-21T00:18:14;16.30;99.90
17178;DHT22;8704;52.006;4.374;2022-08-21T00:20:44;16.30;99.90
17178;DHT22;8704;52.006;4.374;2022-08-21T00:23:12;16.30;99.90
17178;DHT22;8704;52.006;4.374;2022-08-21T00:25:42;16.20;99.90
17178;DHT22;8704;52.006;4.374;2022-08-21T00:28:11;16.50;99.90
17178;DHT22;8704;52.006;4.374;2022-08-21T00:30:40;16.20;99.90
17178;DHT22;8704;52.006;4.374;2022-08-21T00:33:10;16.20;99.90
17178;DHT22;8704;52.006;4.374;2022-08-21T00:35:41;16.20;99.90
17178;DHT22;8704;52.006;4.374;2022-08-21T00:38:10;16.20;99.90
17178;DHT22;8704;52.006;4.374;2022-08-21T00:40:42;16.20;99.90
17178;DHT22;8704;52.006;4.374;2022-08-21T00:43:13;16.20;99.90
17178;DHT22;8704;52.006;4.374;2022-08-21T00:45:42;16.10;99.90
17178;DHT22;8704;52.006;4.374;2022-08-21T00:48:10;16.10;99.90
17178;DHT22;8704;52.006;4.374;2022-08-21T00:50:43;16.10;99.90
17178;DHT22;8704;52.006;4.374;2022-08-21T00:53:13;16.10;99.90
17178;DHT22;8704;52.006;4.374;2022-08-21T00:55:41;16.10;99.90
17178;DHT22;8704;52.006;4.374;2022-08-21T00:58:11;16.10;99.90
17178;DHT22;8704;52.006;4.374;2022-08-21T01:00:45;16.10;99.90
17178;DHT22;8704;52.006;4.374;2022-08-21T01:03:17;16.10;99.90
17178;DHT22;8704;52.006;4.374;2022-08-21T01:05:52;16.10;99.90
17178;DHT22;8704;52.006;4.374;2022-08-21T01:08:21;16.00;99.90
17178;DHT22;8704;52.006;4.374;2022-08-21T01:10:50;16.00;99.90
17178;DHT22;8704;52.006;4.374;2022-08-21T01:13:21;16.00;99.90
17178;DHT22;8704;52.006;4.374;2022-08-21T01:15:53;16.10;99.90
17178;DHT22;8704;52.006;4.374;2022-08-21T01:18:23;15.90;99.90
17178;DHT22;8704;52.006;4.374;2022-08-21T01:21:06;15.90;99.90
17178;DHT22;8704;52.006;4.374;2022-08-21T01:23:41;15.90;99.90
17178;DHT22;8704;52.006;4.374;2022-08-21T01:26:11;15.90;99.90
17178;DHT22;8704;52.006;4.374;2022-08-21T01:28:44;15.90;99.90
17178;DHT22;8704;52.006;4.374;2022-08-21T01:31:13;15.90;99.90
17178;DHT22;8704;52.006;4.374;2022-08-21T01:33:49;15.90;99.90
17178;DHT22;8704;52.006;4.374;2022-08-21T01:36:19;15.90;99.90
17178;DHT22;8704;52.006;4.374;2022-08-21T01:38:47;15.80;99.90
17178;DHT22;8704;52.006;4.374;2022-08-21T01:41:15;15.80;99.90
17178;DHT22;8704;52.006;4.374;2022-08-21T01:43:43;15.80;99.90
17178;DHT22;8704;52.006;4.374;2022-08-21T01:46:12;15.80;99.90
17178;DHT22;8704;52.006;4.374;2022-08-21T01:48:41;15.80;99.90
17178;DHT22;8704;52.006;4.374;2022-08-21T01:51:09;15.70;99.90
17178;DHT22;8704;52.006;4.374;2022-08-21T01:53:39;15.70;99.90
17178;DHT22;8704;52.006;4.374;2022-08-21T01:56:10;15.70;99.90
17178;DHT22;8704;52.006;4.374;2022-08-21T01:58:39;15.70;99.90
17178;DHT22;8704;52.006;4.374;2022-08-21T02:01:08;15.80;99.90
17178;DHT22;8704;52.006;4.374;2022-08-21T02:03:36;15.70;99.90
17178;DHT22;8704;52.006;4.374;2022-08-21T02:06:05;15.70;99.90
17178;DHT22;8704;52.006;4.374;2022-08-21T02:08:34;15.60;99.90
17178;DHT22;8704;52.006;4.374;2022-08-21T02:11:04;15.60;99.90
17178;DHT22;8704;52.006;4.374;2022-08-21T02:13:32;15.60;99.90
17178;DHT22;8704;52.006;4.374;2022-08-21T02:16:00;15.60;99.90
17178;DHT22;8704;52.006;4.374;2022-08-21T02:18:28;15.60;99.90
17178;DHT22;8704;52.006;4.374;2022-08-21T02:20:56;15.60;99.90
17178;DHT22;8704;52.006;4.374;2022-08-21T02:23:24;15.50;99.90
17178;DHT22;8704;52.006;4.374;2022-08-21T02:25:53;15.50;99.90
17178;DHT22;8704;52.006;4.374;2022-08-21T02:28:23;15.50;99.90
17178;DHT22;8704;52.006;4.374;2022-08-21T02:30:54;15.50;99.90
17178;DHT22;8704;52.006;4.374;2022-08-21T02:33:23;15.50;99.90
17178;DHT22;8704;52.006;4.374;2022-08-21T02:35:52;15.40;99.90
17178;DHT22;8704;52.006;4.374;2022-08-21T02:38:23;15.50;99.90
17178;DHT22;8704;52.006;4.374;2022-08-21T02:40:52;15.40;99.90
17178;DHT22;8704;52.006;4.374;2022-08-21T02:43:23;15.40;99.90
17178;DHT22;8704;52.006;4.374;2022-08-21T02:45:53;15.50;99.90
17178;DHT22;8704;52.006;4.374;2022-08-21T02:48:24;15.40;99.90
17178;DHT22;8704;52.006;4.374;2022-08-21T02:50:54;15.40;99.90
17178;DHT22;8704;52.006;4.374;2022-08-21T02:53:23;15.40;99.90
17178;DHT22;8704;52.006;4.374;2022-08-21T02:55:52;15.40;99.90
17178;DHT22;8704;52.006;4.374;2022-08-21T02:58:23;15.40;99.90
17178;DHT22;8704;52.006;4.374;2022-08-21T03:00:51;15.40;99.90
17178;DHT22;8704;52.006;4.374;2022-08-21T03:03:20;15.40;99.90
17178;DHT22;8704;52.006;4.374;2022-08-21T03:05:48;15.40;99.90
17178;DHT22;8704;52.006;4.374;2022-08-21T03:08:19;15.40;99.90
17178;DHT22;8704;52.006;4.374;2022-08-21T03:10:51;15.40;99.90
17178;DHT22;8704;52.006;4.374;2022-08-21T03:13:20;15.30;99.90
17178;DHT22;8704;52.006;4.374;2022-08-21T03:15:50;15.30;99.90
17178;DHT22;8704;52.006;4.374;2022-08-21T03:18:18;15.30;99.90
17178;DHT22;8704;52.006;4.374;2022-08-21T03:20:46;15.30;99.90
17178;DHT22;8704;52.006;4.374;2022-08-21T03:23:15;15.30;99.90
17178;DHT22;8704;52.006;4.374;2022-08-21T03:25:45;15.30;99.90
17178;DHT22;8704;52.006;4.374;2022-08-21T03:28:15;15.20;99.90
17178;DHT22;8704;52.006;4.374;2022-08-21T03:30:45;15.30;99.90
17178;DHT22;8704;52.006;4.374;2022-08-21T03:33:15;15.30;99.90
17178;DHT22;8704;52.006;4.374;2022-08-21T03:35:52;15.20;99.90
17178;DHT22;8704;52.006;4.374;2022-08-21T03:38:22;15.20;99.90
17178;DHT22;8704;52.006;4.374;2022-08-21T03:40:52;15.20;99.90
17178;DHT22;8704;52.006;4.374;2022-08-21T03:43:21;15.20;99.90
17178;DHT22;8704;52.006;4.374;2022-08-21T03:45:49;15.20;99.90
17178;DHT22;8704;52.006;4.374;2022-08-21T03:48:20;15.30;99.90
17178;DHT22;8704;52.006;4.374;2022-08-21T03:50:48;15.20;99.90
17178;DHT22;8704;52.006;4.374;2022-08-21T03:53:16;15.20;99.90
17178;DHT22;8704;52.006;4.374;2022-08-21T03:55:44;15.20;99.90
17178;DHT22;8704;52.006;4.374;2022-08-21T03:58:14;15.20;99.90
17178;DHT22;8704;52.006;4.374;2022-08-21T04:00:43;15.20;99.90
17178;DHT22;8704;52.006;4.374;2022-08-21T04:03:11;15.20;99.90
17178;DHT22;8704;52.006;4.374;2022-08-21T04:05:41;15.20;99.90
17178;DHT22;8704;52.006;4.374;2022-08-21T04:08:12;15.20;99.90
17178;DHT22;8704;52.006;4.374;2022-08-21T04:10:41;15.20;99.90
17178;DHT22;8704;52.006;4.374;2022-08-21T04:13:11;15.20;99.90
17178;DHT22;8704;52.006;4.374;2022-08-21T04:15:39;15.30;99.90
17178;DHT22;8704;52.006;4.374;2022-08-21T04:18:07;15.20;99.90
17178;DHT22;8704;52.006;4.374;2022-08-21T04:20:36;15.20;99.90
17178;DHT22;8704;52.006;4.374;2022-08-21T04:23:06;15.10;99.90
17178;DHT22;8704;52.006;4.374;2022-08-21T04:25:34;15.20;99.90
17178;DHT22;8704;52.006;4.374;2022-08-21T04:28:03;15.10;99.90
17178;DHT22;8704;52.006;4.374;2022-08-21T04:30:31;15.10;99.90
17178;DHT22;8704;52.006;4.374;2022-08-21T04:32:59;15.20;99.90
17178;DHT22;8704;52.006;4.374;2022-08-21T04:35:28;15.10;99.90
17178;DHT22;8704;52.006;4.374;2022-08-21T04:37:57;15.10;99.90
17178;DHT22;8704;52.006;4.374;2022-08-21T04:40:27;15.20;99.90
17178;DHT22;8704;52.006;4.374;2022-08-21T04:42:58;15.20;99.90
17178;DHT22;8704;52.006;4.374;2022-08-21T04:45:28;15.20;99.90
17178;DHT22;8704;52.006;4.374;2022-08-21T04:47:58;15.30;99.90
17178;DHT22;8704;52.006;4.374;2022-08-21T04:50:30;15.30;99.90
17178;DHT22;8704;52.006;4.374;2022-08-21T04:53:00;15.30;99.90
17178;DHT22;8704;52.006;4.374;2022-08-21T04:55:29;15.30;99.90
17178;DHT22;8704;52.006;4.374;2022-08-21T04:57:57;15.30;99.90
17178;DHT22;8704;52.006;4.374;2022-08-21T05:00:26;15.30;99.90
17178;DHT22;8704;52.006;4.374;2022-08-21T05:02:56;15.30;99.90
17178;DHT22;8704;52.006;4.374;2022-08-21T05:05:27;15.30;99.90
17178;DHT22;8704;52.006;4.374;2022-08-21T05:07:57;15.20;99.90
17178;DHT22;8704;52.006;4.374;2022-08-21T05:10:26;15.40;99.90
17178;DHT22;8704;52.006;4.374;2022-08-21T05:12:56;15.40;99.90
17178;DHT22;8704;52.006;4.374;2022-08-21T05:15:24;15.40;99.90
17178;DHT22;8704;52.006;4.374;2022-08-21T05:17:52;15.40;99.90
17178;DHT22;8704;52.006;4.374;2022-08-21T05:20:27;15.40;99.90
17178;DHT22;8704;52.006;4.374;2022-08-21T05:22:55;15.40;99.90
17178;DHT22;8704;52.006;4.374;2022-08-21T05:25:24;15.40;99.90
17178;DHT22;8704;52.006;4.374;2022-08-21T05:27:53;15.40;99.90
17178;DHT22;8704;52.006;4.374;2022-08-21T05:30:27;15.50;99.90
17178;DHT22;8704;52.006;4.374;2022-08-21T05:32:57;15.50;99.90
17178;DHT22;8704;52.006;4.374;2022-08-21T05:35:26;15.50;99.90
17178;DHT22;8704;52.006;4.374;2022-08-21T05:37:55;15.70;99.90
17178;DHT22;8704;52.006;4.374;2022-08-21T05:40:23;15.60;99.90
17178;DHT22;8704;52.006;4.374;2022-08-21T05:42:53;15.60;99.90
17178;DHT22;8704;52.006;4.374;2022-08-21T05:45:24;15.70;99.90
17178;DHT22;8704;52.006;4.374;2022-08-21T05:48:13;15.70;99.90
17178;DHT22;8704;52.006;4.374;2022-08-21T05:50:42;15.70;99.90
17178;DHT22;8704;52.006;4.374;2022-08-21T05:53:11;15.70;99.90
17178;DHT22;8704;52.006;4.374;2022-08-21T05:55:40;15.80;99.90
17178;DHT22;8704;52.006;4.374;2022-08-21T05:58:12;15.80;99.90
17178;DHT22;8704;52.006;4.374;2022-08-21T06:00:40;15.80;99.90
17178;DHT22;8704;52.006;4.374;2022-08-21T06:03:15;16.00;99.90
17178;DHT22;8704;52.006;4.374;2022-08-21T06:05:44;15.90;99.90
17178;DHT22;8704;52.006;4.374;2022-08-21T06:08:12;16.10;99.90
17178;DHT22;8704;52.006;4.374;2022-08-21T06:10:41;16.00;99.90
17178;DHT22;8704;52.006;4.374;2022-08-21T06:13:09;16.10;99.90
17178;DHT22;8704;52.006;4.374;2022-08-21T06:15:38;16.10;99.90
17178;DHT22;8704;52.006;4.374;2022-08-21T06:18:06;16.20;99.90
17178;DHT22;8704;52.006;4.374;2022-08-21T06:20:36;16.20;99.90
17178;DHT22;8704;52.006;4.374;2022-08-21T06:23:05;16.20;99.90
17178;DHT22;8704;52.006;4.374;2022-08-21T06:25:33;16.30;99.90
17178;DHT22;8704;52.006;4.374;2022-08-21T06:28:02;16.30;99.90
17178;DHT22;8704;52.006;4.374;2022-08-21T06:30:30;16.40;99.90
17178;DHT22;8704;52.006;4.374;2022-08-21T06:32:58;16.50;99.90
17178;DHT22;8704;52.006;4.374;2022-08-21T06:35:27;16.60;99.90
17178;DHT22;8704;52.006;4.374;2022-08-21T06:37:57;16.60;99.90
17178;DHT22;8704;52.006;4.374;2022-08-21T06:40:26;16.70;99.90
17178;DHT22;8704;52.006;4.374;2022-08-21T06:42:56;16.70;99.90
17178;DHT22;8704;52.006;4.374;2022-08-21T06:45:26;17.10;99.90
17178;DHT22;8704;52.006;4.374;2022-08-21T06:47:58;16.80;99.90
17178;DHT22;8704;52.006;4.374;2022-08-21T06:50:26;16.90;99.90
17178;DHT22;8704;52.006;4.374;2022-08-21T06:53:03;17.00;99.90
17178;DHT22;8704;52.006;4.374;2022-08-21T06:55:31;17.00;99.90
17178;DHT22;8704;52.006;4.374;2022-08-21T06:57:59;17.10;99.90
17178;DHT22;8704;52.006;4.374;2022-08-21T07:00:28;17.30;99.90
17178;DHT22;8704;52.006;4.374;2022-08-21T07:02:56;17.30;99.90
17178;DHT22;8704;52.006;4.374;2022-08-21T07:05:25;17.30;99.90
17178;DHT22;8704;52.006;4.374;2022-08-21T07:07:54;17.40;99.90
17178;DHT22;8704;52.006;4.374;2022-08-21T07:10:23;17.40;99.90
17178;DHT22;8704;52.006;4.374;2022-08-21T07:12:51;17.40;99.90
17178;DHT22;8704;52.006;4.374;2022-08-21T07:15:28;17.50;99.90
17178;DHT22;8704;52.006;4.374;2022-08-21T07:17:57;17.60;99.90
17178;DHT22;8704;52.006;4.374;2022-08-21T07:20:26;17.60;99.90
17178;DHT22;8704;52.006;4.374;2022-08-21T07:22:55;17.80;99.90
17178;DHT22;8704;52.006;4.374;2022-08-21T07:25:25;17.90;99.90
17178;DHT22;8704;52.006;4.374;2022-08-21T07:27:53;17.80;99.90
17178;DHT22;8704;52.006;4.374;2022-08-21T07:30:22;18.00;99.90
17178;DHT22;8704;52.006;4.374;2022-08-21T07:32:50;18.00;99.90
17178;DHT22;8704;52.006;4.374;2022-08-21T07:35:19;18.10;99.90
17178;DHT22;8704;52.006;4.374;2022-08-21T07:37:47;18.20;99.90
17178;DHT22;8704;52.006;4.374;2022-08-21T07:40:16;18.60;99.90
17178;DHT22;8704;52.006;4.374;2022-08-21T07:42:47;18.40;99.90
17178;DHT22;8704;52.006;4.374;2022-08-21T07:45:22;18.60;99.90
17178;DHT22;8704;52.006;4.374;2022-08-21T07:47:51;18.70;99.90
17178;DHT22;8704;52.006;4.374;2022-08-21T07:50:23;18.80;99.90
17178;DHT22;8704;52.006;4.374;2022-08-21T07:52:51;18.90;99.90
17178;DHT22;8704;52.006;4.374;2022-08-21T07:55:21;19.00;99.90
17178;DHT22;8704;52.006;4.374;2022-08-21T07:57:50;19.00;99.90
17178;DHT22;8704;52.006;4.374;2022-08-21T08:00:22;19.00;99.90
17178;DHT22;8704;52.006;4.374;2022-08-21T08:02:51;19.10;99.90
17178;DHT22;8704;52.006;4.374;2022-08-21T08:05:21;19.10;99.90
17178;DHT22;8704;52.006;4.374;2022-08-21T08:07:50;19.10;99.90
17178;DHT22;8704;52.006;4.374;2022-08-21T08:10:18;19.30;99.90
17178;DHT22;8704;52.006;4.374;2022-08-21T08:12:47;19.30;99.90
17178;DHT22;8704;52.006;4.374;2022-08-21T08:15:20;19.40;99.90
17178;DHT22;8704;52.006;4.374;2022-08-21T08:17:48;19.20;99.90
17178;DHT22;8704;52.006;4.374;2022-08-21T08:20:17;19.50;99.90
17178;DHT22;8704;52.006;4.374;2022-08-21T08:22:46;19.60;99.90
17178;DHT22;8704;52.006;4.374;2022-08-21T08:25:16;19.70;99.90
17178;DHT22;8704;52.006;4.374;2022-08-21T08:27:44;19.80;99.90
17178;DHT22;8704;52.006;4.374;2022-08-21T08:30:16;19.90;99.90
17178;DHT22;8704;52.006;4.374;2022-08-21T08:32:46;20.00;99.90
17178;DHT22;8704;52.006;4.374;2022-08-21T08:35:14;20.20;99.90
17178;DHT22;8704;52.006;4.374;2022-08-21T08:37:43;20.20;99.90
17178;DHT22;8704;52.006;4.374;2022-08-21T08:40:22;20.40;99.90
17178;DHT22;8704;52.006;4.374;2022-08-21T08:42:52;20.50;99.90
17178;DHT22;8704;52.006;4.374;2022-08-21T08:45:22;20.50;99.90
17178;DHT22;8704;52.006;4.374;2022-08-21T08:47:56;20.70;99.90
17178;DHT22;8704;52.006;4.374;2022-08-21T08:50:33;20.80;99.90
17178;DHT22;8704;52.006;4.374;2022-08-21T08:53:14;20.90;99.90
17178;DHT22;8704;52.006;4.374;2022-08-21T08:55:44;21.00;99.90
17178;DHT22;8704;52.006;4.374;2022-08-21T08:58:18;20.90;99.90
17178;DHT22;8704;52.006;4.374;2022-08-21T09:00:52;20.80;99.90
17178;DHT22;8704;52.006;4.374;2022-08-21T09:03:22;20.70;99.90
17178;DHT22;8704;52.006;4.374;2022-08-21T09:05:57;20.70;99.90
17178;DHT22;8704;52.006;4.374;2022-08-21T09:08:39;20.80;99.90
17178;DHT22;8704;52.006;4.374;2022-08-21T09:11:13;20.60;99.90
17178;DHT22;8704;52.006;4.374;2022-08-21T09:13:50;20.60;99.90
17178;DHT22;8704;52.006;4.374;2022-08-21T09:16:31;20.60;99.90
17178;DHT22;8704;52.006;4.374;2022-08-21T09:19:06;20.70;99.90
17178;DHT22;8704;52.006;4.374;2022-08-21T09:21:43;20.70;99.90
17178;DHT22;8704;52.006;4.374;2022-08-21T09:24:29;20.70;99.90
17178;DHT22;8704;52.006;4.374;2022-08-21T09:27:03;20.80;99.90
17178;DHT22;8704;52.006;4.374;2022-08-21T09:29:40;20.80;99.90
17178;DHT22;8704;52.006;4.374;2022-08-21T09:32:16;20.80;99.90
17178;DHT22;8704;52.006;4.374;2022-08-21T09:34:56;20.80;99.90
17178;DHT22;8704;52.006;4.374;2022-08-21T09:37:26;20.80;99.90
17178;DHT22;8704;52.006;4.374;2022-08-21T09:39:55;20.90;99.90
17178;DHT22;8704;52.006;4.374;2022-08-21T09:42:27;20.70;99.90
17178;DHT22;8704;52.006;4.374;2022-08-21T09:45:11;20.70;99.90
17178;DHT22;8704;52.006;4.374;2022-08-21T09:47:42;20.70;99.90
17178;DHT22;8704;52.006;4.374;2022-08-21T09:50:14;20.80;99.90
17178;DHT22;8704;52.006;4.374;2022-08-21T09:52:46;20.80;99.90
17178;DHT22;8704;52.006;4.374;2022-08-21T09:55:21;20.80;99.90
17178;DHT22;8704;52.006;4.374;2022-08-21T09:58:09;20.90;99.90
17178;DHT22;8704;52.006;4.374;2022-08-21T10:00:38;21.00;99.90
17178;DHT22;8704;52.006;4.374;2022-08-21T10:03:15;21.00;99.90
17178;DHT22;8704;52.006;4.374;2022-08-21T10:05:54;21.10;99.90
17178;DHT22;8704;52.006;4.374;2022-08-21T10:08:24;21.20;99.90
17178;DHT22;8704;52.006;4.374;2022-08-21T10:10:56;21.20;99.90
17178;DHT22;8704;52.006;4.374;2022-08-21T10:13:37;21.40;99.90
17178;DHT22;8704;52.006;4.374;2022-08-21T10:16:20;21.60;99.90
17178;DHT22;8704;52.006;4.374;2022-08-21T10:19:02;21.70;99.90
17178;DHT22;8704;52.006;4.374;2022-08-21T10:21:39;21.70;99.90
17178;DHT22;8704;52.006;4.374;2022-08-21T10:24:15;21.80;99.90
17178;DHT22;8704;52.006;4.374;2022-08-21T10:27:06;21.70;99.90
17178;DHT22;8704;52.006;4.374;2022-08-21T10:29:50;21.80;99.90
17178;DHT22;8704;52.006;4.374;2022-08-21T10:32:38;21.80;99.90
17178;DHT22;8704;52.006;4.374;2022-08-21T10:35:13;21.80;99.90
17178;DHT22;8704;52.006;4.374;2022-08-21T10:37:52;22.00;99.90
17178;DHT22;8704;52.006;4.374;2022-08-21T10:40:27;21.90;99.90
17178;DHT22;8704;52.006;4.374;2022-08-21T10:43:04;22.00;99.00
17178;DHT22;8704;52.006;4.374;2022-08-21T10:45:45;22.00;99.90
17178;DHT22;8704;52.006;4.374;2022-08-21T10:48:23;22.10;99.90
17178;DHT22;8704;52.006;4.374;2022-08-21T10:50:58;22.30;99.90
17178;DHT22;8704;52.006;4.374;2022-08-21T10:53:36;22.40;1.00
17178;DHT22;8704;52.006;4.374;2022-08-21T10:56:14;22.60;2.50
17178;DHT22;8704;52.006;4.374;2022-08-21T10:58:58;22.70;1.80
17178;DHT22;8704;52.006;4.374;2022-08-21T11:01:29;22.90;1.00
17178;DHT22;8704;52.006;4.374;2022-08-21T11:04:09;22.90;1.00
17178;DHT22;8704;52.006;4.374;2022-08-21T11:06:44;22.80;99.90
17178;DHT22;8704;52.006;4.374;2022-08-21T11:09:15;23.10;1.00
17178;DHT22;8704;52.006;4.374;2022-08-21T11:11:47;23.30;1.00
17178;DHT22;8704;52.006;4.374;2022-08-21T11:14:38;23.20;1.00
17178;DHT22;8704;52.006;4.374;2022-08-21T11:17:18;23.30;99.90
17178;DHT22;8704;52.006;4.374;2022-08-21T11:19:50;23.50;99.90
17178;DHT22;8704;52.006;4.374;2022-08-21T11:22:26;23.60;1.00
17178;DHT22;8704;52.006;4.374;2022-08-21T11:25:00;23.50;99.90
17178;DHT22;8704;52.006;4.374;2022-08-21T11:27:36;23.70;1.00
17178;DHT22;8704;52.006;4.374;2022-08-21T11:30:06;23.70;99.90
17178;DHT22;8704;52.006;4.374;2022-08-21T11:32:57;23.70;1.00
17178;DHT22;8704;52.006;4.374;2022-08-21T11:35:35;23.60;1.00
17178;DHT22;8704;52.006;4.374;2022-08-21T11:38:24;24.00;49.10
17178;DHT22;8704;52.006;4.374;2022-08-21T11:41:03;24.10;99.90
17178;DHT22;8704;52.006;4.374;2022-08-21T11:43:38;24.40;1.00
17178;DHT22;8704;52.006;4.374;2022-08-21T11:46:25;24.40;1.00
17178;DHT22;8704;52.006;4.374;2022-08-21T11:49:06;24.40;99.90
17178;DHT22;8704;52.006;4.374;2022-08-21T11:51:43;24.50;99.90
17178;DHT22;8704;52.006;4.374;2022-08-21T11:54:19;24.60;1.00
17178;DHT22;8704;52.006;4.374;2022-08-21T11:56:52;24.50;28.50
17178;DHT22;8704;52.006;4.374;2022-08-21T11:59:23;24.80;1.00
17178;DHT22;8704;52.006;4.374;2022-08-21T12:01:54;24.90;1.00
17178;DHT22;8704;52.006;4.374;2022-08-21T12:04:26;25.10;1.00
17178;DHT22;8704;52.006;4.374;2022-08-21T12:06:56;25.20;1.00
17178;DHT22;8704;52.006;4.374;2022-08-21T12:09:32;25.00;1.00
17178;DHT22;8704;52.006;4.374;2022-08-21T12:12:06;24.90;1.00
17178;DHT22;8704;52.006;4.374;2022-08-21T12:14:40;24.90;1.00
17178;DHT22;8704;52.006;4.374;2022-08-21T12:17:17;25.20;1.00
17178;DHT22;8704;52.006;4.374;2022-08-21T12:19:57;24.80;1.00
17178;DHT22;8704;52.006;4.374;2022-08-21T12:22:37;24.90;1.00
17178;DHT22;8704;52.006;4.374;2022-08-21T12:25:11;25.00;99.90
17178;DHT22;8704;52.006;4.374;2022-08-21T12:27:50;24.80;99.90
17178;DHT22;8704;52.006;4.374;2022-08-21T12:30:22;24.60;1.00
17178;DHT22;8704;52.006;4.374;2022-08-21T12:32:59;24.90;1.00
17178;DHT22;8704;52.006;4.374;2022-08-21T12:35:31;25.20;1.00
17178;DHT22;8704;52.006;4.374;2022-08-21T12:38:05;25.50;1.00
17178;DHT22;8704;52.006;4.374;2022-08-21T12:40:40;25.80;1.00
17178;DHT22;8704;52.006;4.374;2022-08-21T12:43:14;25.80;1.00
17178;DHT22;8704;52.006;4.374;2022-08-21T12:45:46;25.80;1.00
17178;DHT22;8704;52.006;4.374;2022-08-21T12:48:20;26.00;1.00
17178;DHT22;8704;52.006;4.374;2022-08-21T12:50:52;26.10;1.00
17178;DHT22;8704;52.006;4.374;2022-08-21T12:53:28;26.30;1.00
17178;DHT22;8704;52.006;4.374;2022-08-21T12:56:01;26.50;1.00
17178;DHT22;8704;52.006;4.374;2022-08-21T12:58:30;26.40;1.00
17178;DHT22;8704;52.006;4.374;2022-08-21T13:01:01;26.50;99.90
17178;DHT22;8704;52.006;4.374;2022-08-21T13:03:30;26.50;99.90
17178;DHT22;8704;52.006;4.374;2022-08-21T13:05:59;26.80;99.90
17178;DHT22;8704;52.006;4.374;2022-08-21T13:08:27;26.90;99.90
17178;DHT22;8704;52.006;4.374;2022-08-21T13:11:00;27.10;99.90
17178;DHT22;8704;52.006;4.374;2022-08-21T13:13:40;27.30;99.90
17178;DHT22;8704;52.006;4.374;2022-08-21T13:16:20;27.50;99.90
17178;DHT22;8704;52.006;4.374;2022-08-21T13:18:57;27.20;99.90
17178;DHT22;8704;52.006;4.374;2022-08-21T13:21:31;27.10;99.90
17178;DHT22;8704;52.006;4.374;2022-08-21T13:24:24;27.10;99.90
17178;DHT22;8704;52.006;4.374;2022-08-21T13:27:20;27.00;99.90
17178;DHT22;8704;52.006;4.374;2022-08-21T13:29:48;26.60;99.90
17178;DHT22;8704;52.006;4.374;2022-08-21T13:32:29;26.50;99.90
17178;DHT22;8704;52.006;4.374;2022-08-21T13:34:59;26.70;1.00
17178;DHT22;8704;52.006;4.374;2022-08-21T13:37:35;26.50;99.90
17178;DHT22;8704;52.006;4.374;2022-08-21T13:40:09;26.50;99.90
17178;DHT22;8704;52.006;4.374;2022-08-21T13:42:41;26.30;99.90
17178;DHT22;8704;52.006;4.374;2022-08-21T13:45:16;25.90;1.00
17178;DHT22;8704;52.006;4.374;2022-08-21T13:47:45;26.10;1.00
17178;DHT22;8704;52.006;4.374;2022-08-21T13:50:16;25.80;1.00
17178;DHT22;8704;52.006;4.374;2022-08-21T13:52:49;25.60;1.00
17178;DHT22;8704;52.006;4.374;2022-08-21T13:55:18;25.30;1.00
17178;DHT22;8704;52.006;4.374;2022-08-21T13:57:47;25.20;1.00
17178;DHT22;8704;52.006;4.374;2022-08-21T14:00:18;25.20;1.00
17178;DHT22;8704;52.006;4.374;2022-08-21T14:02:49;24.90;1.00
17178;DHT22;8704;52.006;4.374;2022-08-21T14:05:22;24.80;1.00
17178;DHT22;8704;52.006;4.374;2022-08-21T14:08:01;24.70;1.00
17178;DHT22;8704;52.006;4.374;2022-08-21T14:10:30;24.50;1.00
17178;DHT22;8704;52.006;4.374;2022-08-21T14:13:03;24.70;61.40
17178;DHT22;8704;52.006;4.374;2022-08-21T14:15:33;24.50;1.00
17178;DHT22;8704;52.006;4.374;2022-08-21T14:18:09;24.50;99.90
17178;DHT22;8704;52.006;4.374;2022-08-21T14:20:40;24.50;1.00
17178;DHT22;8704;52.006;4.374;2022-08-21T14:23:09;24.00;1.00
17178;DHT22;8704;52.006;4.374;2022-08-21T14:25:40;24.10;99.90
17178;DHT22;8704;52.006;4.374;2022-08-21T14:28:14;24.10;1.00
17178;DHT22;8704;52.006;4.374;2022-08-21T14:30:46;24.10;1.00
17178;DHT22;8704;52.006;4.374;2022-08-21T14:33:23;23.80;99.90
17178;DHT22;8704;52.006;4.374;2022-08-21T14:35:52;23.60;99.90
17178;DHT22;8704;52.006;4.374;2022-08-21T14:38:22;23.80;99.90
17178;DHT22;8704;52.006;4.374;2022-08-21T14:40:54;23.70;1.00
17178;DHT22;8704;52.006;4.374;2022-08-21T14:43:26;24.20;1.00
17178;DHT22;8704;52.006;4.374;2022-08-21T14:45:54;23.80;1.00
17178;DHT22;8704;52.006;4.374;2022-08-21T14:48:22;23.70;1.00
17178;DHT22;8704;52.006;4.374;2022-08-21T14:50:51;23.60;99.90
17178;DHT22;8704;52.006;4.374;2022-08-21T14:53:25;23.70;1.00
17178;DHT22;8704;52.006;4.374;2022-08-21T14:55:53;24.00;45.20
17178;DHT22;8704;52.006;4.374;2022-08-21T14:58:39;23.90;99.90
17178;DHT22;8704;52.006;4.374;2022-08-21T15:01:09;24.20;99.90
17178;DHT22;8704;52.006;4.374;2022-08-21T15:03:37;23.80;99.90
17178;DHT22;8704;52.006;4.374;2022-08-21T15:06:07;24.00;1.00
17178;DHT22;8704;52.006;4.374;2022-08-21T15:08:35;23.90;1.00
17178;DHT22;8704;52.006;4.374;2022-08-21T15:11:03;24.60;99.90
17178;DHT22;8704;52.006;4.374;2022-08-21T15:13:41;24.10;1.00
17178;DHT22;8704;52.006;4.374;2022-08-21T15:16:11;24.10;99.90
17178;DHT22;8704;52.006;4.374;2022-08-21T15:18:39;24.00;31.30
17178;DHT22;8704;52.006;4.374;2022-08-21T15:21:08;24.00;1.00
17178;DHT22;8704;52.006;4.374;2022-08-21T15:23:36;24.60;1.00
17178;DHT22;8704;52.006;4.374;2022-08-21T15:26:09;25.00;1.00
17178;DHT22;8704;52.006;4.374;2022-08-21T15:28:37;24.60;1.00
17178;DHT22;8704;52.006;4.374;2022-08-21T15:31:07;25.10;1.00
17178;DHT22;8704;52.006;4.374;2022-08-21T15:33:35;25.40;1.00
17178;DHT22;8704;52.006;4.374;2022-08-21T15:36:03;26.10;1.00
17178;DHT22;8704;52.006;4.374;2022-08-21T15:38:31;26.20;1.00
17178;DHT22;8704;52.006;4.374;2022-08-21T15:40:59;26.70;1.00
17178;DHT22;8704;52.006;4.374;2022-08-21T15:43:30;26.90;1.00
17178;DHT22;8704;52.006;4.374;2022-08-21T15:45:59;26.50;99.90
17178;DHT22;8704;52.006;4.374;2022-08-21T15:48:29;26.50;99.90
17178;DHT22;8704;52.006;4.374;2022-08-21T15:50:57;26.50;99.90
17178;DHT22;8704;52.006;4.374;2022-08-21T15:53:25;26.90;99.90
17178;DHT22;8704;52.006;4.374;2022-08-21T15:55:53;26.80;99.90
17178;DHT22;8704;52.006;4.374;2022-08-21T15:58:21;27.10;99.90
17178;DHT22;8704;52.006;4.374;2022-08-21T16:00:49;27.20;99.90
17178;DHT22;8704;52.006;4.374;2022-08-21T16:03:18;27.30;99.90
17178;DHT22;8704;52.006;4.374;2022-08-21T16:05:49;27.20;99.90
17178;DHT22;8704;52.006;4.374;2022-08-21T16:08:19;27.10;99.90
17178;DHT22;8704;52.006;4.374;2022-08-21T16:10:48;27.20;99.90
17178;DHT22;8704;52.006;4.374;2022-08-21T16:13:20;27.30;99.90
17178;DHT22;8704;52.006;4.374;2022-08-21T16:15:49;27.20;99.90
17178;DHT22;8704;52.006;4.374;2022-08-21T16:18:19;27.00;99.90